createdAt,value
2019-01-12T00:01:34.721Z,19.77
2019-01-12T00:04:03.583Z,17.82
2019-01-12T00:06:32.654Z,16.17
2019-01-12T00:09:01.105Z,14.65
2019-01-12T00:11:29.793Z,16.32
2019-01-12T00:13:58.450Z,19.50
2019-01-12T00:16:26.797Z,17.87
2019-01-12T00:18:56.162Z,16.40
2019-01-12T00:21:24.694Z,14.68
2019-01-12T00:23:53.069Z,14.60
2019-01-12T00:26:21.629Z,14.90
2019-01-12T00:28:50.001Z,15.90
2019-01-12T00:31:18.462Z,17.65
2019-01-12T00:33:47.041Z,14.80
2019-01-12T00:36:16.081Z,16.65
2019-01-12T00:38:44.444Z,18.32
2019-01-12T00:41:13.762Z,16.97
2019-01-12T00:43:42.577Z,20.25
2019-01-12T00:46:10.939Z,16.02
2019-01-12T00:48:39.278Z,16.97
2019-01-12T00:51:09.469Z,17.90
2019-01-12T00:53:37.926Z,15.55
2019-01-12T00:56:06.383Z,16.35
2019-01-12T00:58:36.543Z,16.75
2019-01-12T01:01:06.723Z,18.95
2019-01-12T01:03:35.193Z,16.60
2019-01-12T01:06:03.762Z,20.25
2019-01-12T01:08:32.223Z,19.82
2019-01-12T01:11:00.910Z,22.55
2019-01-12T01:13:29.378Z,19.10
2019-01-12T01:15:59.535Z,17.40
2019-01-12T01:18:27.910Z,23.62
2019-01-12T01:20:56.268Z,23.70
2019-01-12T01:23:24.635Z,19.32
2019-01-12T01:25:52.990Z,20.62
2019-01-12T01:28:21.358Z,17.50
2019-01-12T01:30:49.811Z,18.62
2019-01-12T01:33:18.364Z,17.80
2019-01-12T01:35:46.809Z,18.48
2019-01-12T01:38:15.263Z,19.70
2019-01-12T01:40:43.722Z,17.50
2019-01-12T01:43:12.089Z,17.55
2019-01-12T01:45:40.449Z,17.42
2019-01-12T01:48:08.898Z,19.55
2019-01-12T01:50:37.367Z,25.17
2019-01-12T01:53:05.741Z,21.00
2019-01-12T01:55:34.093Z,17.48
2019-01-12T01:58:02.540Z,15.15
2019-01-12T02:00:30.912Z,16.37
2019-01-12T02:02:59.476Z,11.55
2019-01-12T02:05:27.849Z,16.02
2019-01-12T02:07:56.225Z,14.10
2019-01-12T02:10:24.682Z,12.10
2019-01-12T02:12:53.330Z,19.15
2019-01-12T02:15:22.077Z,11.57
2019-01-12T02:17:50.652Z,11.97
2019-01-12T02:20:19.132Z,17.52
2019-01-12T02:22:47.683Z,12.10
2019-01-12T02:25:16.123Z,13.72
2019-01-12T02:27:44.474Z,13.95
2019-01-12T02:30:23.684Z,13.43
2019-01-12T02:32:53.466Z,12.70
2019-01-12T02:35:21.926Z,12.35
2019-01-12T02:37:50.277Z,15.10
2019-01-12T02:40:19.152Z,14.30
2019-01-12T02:42:47.615Z,13.72
2019-01-12T02:45:16.911Z,13.88
2019-01-12T02:47:45.246Z,13.55
2019-01-12T02:50:13.749Z,12.43
2019-01-12T02:52:42.297Z,16.25
2019-01-12T02:55:10.744Z,13.03
2019-01-12T02:57:39.207Z,17.90
2019-01-12T03:00:18.881Z,16.50
2019-01-12T03:02:49.577Z,11.97
2019-01-12T03:05:18.033Z,16.60
2019-01-12T03:07:46.522Z,17.55
2019-01-12T03:10:16.854Z,13.70
2019-01-12T03:12:45.416Z,15.40
2019-01-12T03:15:16.808Z,14.87
2019-01-12T03:17:45.146Z,12.33
2019-01-12T03:20:16.424Z,18.57
2019-01-12T03:22:45.016Z,14.38
2019-01-12T03:25:18.528Z,12.68
2019-01-12T03:27:45.567Z,17.17
2019-01-12T03:30:17.463Z,14.25
2019-01-12T03:32:46.000Z,20.48
2019-01-12T03:35:14.437Z,16.23
2019-01-12T03:37:43.108Z,12.15
2019-01-12T03:40:15.850Z,12.82
2019-01-12T03:42:44.265Z,12.23
2019-01-12T03:45:14.749Z,12.82
2019-01-12T03:47:44.934Z,11.18
2019-01-12T03:50:14.068Z,11.55
2019-01-12T03:52:42.640Z,11.90
2019-01-12T03:55:13.017Z,12.95
2019-01-12T03:57:41.567Z,13.25
2019-01-12T04:00:16.289Z,13.15
2019-01-12T04:02:44.816Z,13.38
2019-01-12T04:05:13.402Z,11.95
2019-01-12T04:07:41.853Z,12.10
2019-01-12T04:10:10.573Z,10.60
2019-01-12T04:12:40.792Z,8.93
2019-01-12T04:15:09.629Z,11.08
2019-01-12T04:17:38.900Z,12.00
2019-01-12T04:20:10.714Z,13.03
2019-01-12T04:22:39.271Z,9.03
2019-01-12T04:25:08.623Z,12.23
2019-01-12T04:27:37.698Z,11.57
2019-01-12T04:30:10.548Z,9.78
2019-01-12T04:32:39.051Z,8.78
2019-01-12T04:35:07.541Z,10.32
2019-01-12T04:37:35.992Z,11.48
2019-01-12T04:40:06.732Z,9.03
2019-01-12T04:42:35.294Z,12.13
2019-01-12T04:45:05.025Z,9.55
2019-01-12T04:47:33.500Z,10.30
2019-01-12T04:50:01.875Z,11.90
2019-01-12T04:52:30.311Z,11.33
2019-01-12T04:54:58.775Z,10.15
2019-01-12T04:57:27.127Z,11.93
2019-01-12T04:59:57.323Z,12.07
2019-01-12T05:02:25.821Z,12.53
2019-01-12T05:04:54.174Z,12.53
2019-01-12T05:07:23.441Z,10.75
2019-01-12T05:09:52.350Z,9.45
2019-01-12T05:12:22.412Z,10.68
2019-01-12T05:14:50.762Z,12.53
2019-01-12T05:17:19.123Z,11.85
2019-01-12T05:19:47.580Z,12.28
2019-01-12T05:22:16.114Z,10.82
2019-01-12T05:24:44.581Z,10.78
2019-01-12T05:27:13.225Z,11.48
2019-01-12T05:29:41.830Z,13.32
2019-01-12T05:32:10.329Z,13.78
2019-01-12T05:34:38.775Z,11.22
2019-01-12T05:37:08.149Z,10.78
2019-01-12T05:39:36.496Z,12.25
2019-01-12T05:42:05.000Z,9.68
2019-01-12T05:44:33.481Z,8.48
2019-01-12T05:47:01.943Z,8.33
2019-01-12T05:49:30.313Z,16.00
2019-01-12T05:51:58.813Z,7.95
2019-01-12T05:54:27.177Z,9.70
2019-01-12T05:56:55.525Z,9.15
2019-01-12T05:59:27.837Z,12.63
2019-01-12T06:01:56.299Z,13.35
2019-01-12T06:04:25.396Z,14.47
2019-01-12T06:06:54.893Z,13.05
2019-01-12T06:09:23.257Z,9.43
2019-01-12T06:11:51.792Z,9.70
2019-01-12T06:14:20.139Z,12.35
2019-01-12T06:16:48.635Z,13.05
2019-01-12T06:19:16.982Z,15.43
2019-01-12T06:21:45.704Z,15.40
2019-01-12T06:24:14.287Z,12.75
2019-01-12T06:26:42.746Z,14.05
2019-01-12T06:29:11.204Z,12.45
2019-01-12T06:31:39.587Z,12.15
2019-01-12T06:34:08.115Z,14.95
2019-01-12T06:36:36.472Z,13.00
2019-01-12T06:39:08.535Z,13.18
2019-01-12T06:41:38.038Z,11.80
2019-01-12T06:44:06.489Z,10.58
2019-01-12T06:46:34.990Z,12.40
2019-01-12T06:49:03.659Z,13.50
2019-01-12T06:51:32.092Z,17.35
2019-01-12T06:54:00.471Z,10.93
2019-01-12T06:56:28.847Z,14.35
2019-01-12T06:58:57.696Z,17.05
2019-01-12T07:01:26.250Z,13.62
2019-01-12T07:03:54.557Z,13.30
2019-01-12T07:06:24.643Z,14.93
2019-01-12T07:08:53.259Z,12.78
2019-01-12T07:11:21.645Z,16.48
2019-01-12T07:13:52.275Z,15.78
2019-01-12T07:16:21.265Z,15.25
2019-01-12T07:18:49.886Z,14.58
2019-01-12T07:21:20.387Z,19.12
2019-01-12T07:23:48.922Z,12.47
2019-01-12T07:26:17.773Z,15.10
2019-01-12T07:28:46.283Z,16.30
2019-01-12T07:31:14.958Z,12.50
2019-01-12T07:33:44.363Z,19.42
2019-01-12T07:36:13.312Z,14.55
2019-01-12T07:38:42.018Z,21.25
2019-01-12T07:41:10.716Z,20.02
2019-01-12T07:43:39.079Z,18.17
2019-01-12T07:46:07.649Z,18.05
2019-01-12T07:48:36.009Z,17.37
2019-01-12T07:51:04.363Z,16.93
2019-01-12T07:53:33.053Z,17.55
2019-01-12T07:56:01.605Z,17.02
2019-01-12T07:58:29.986Z,15.70
2019-01-12T08:00:58.346Z,18.32
2019-01-12T08:03:26.859Z,18.23
2019-01-12T08:05:55.322Z,18.10
2019-01-12T08:08:23.724Z,17.07
2019-01-12T08:10:52.181Z,13.98
2019-01-12T08:13:20.582Z,25.12
2019-01-12T08:15:49.506Z,26.77
2019-01-12T08:18:18.094Z,29.37
2019-01-12T08:20:46.672Z,26.02
2019-01-12T08:23:15.298Z,21.42
2019-01-12T08:25:44.133Z,22.50
2019-01-12T08:28:12.554Z,20.12
2019-01-12T08:30:41.027Z,17.73
2019-01-12T08:33:09.608Z,20.25
2019-01-12T08:35:38.457Z,18.77
2019-01-12T08:38:07.046Z,17.30
2019-01-12T08:40:36.130Z,17.55
2019-01-12T08:43:05.910Z,19.82
2019-01-12T08:45:34.408Z,18.48
2019-01-12T08:48:02.969Z,14.73
2019-01-12T08:50:31.985Z,19.15
2019-01-12T08:53:01.025Z,19.92
2019-01-12T08:55:30.412Z,14.95
2019-01-12T08:57:59.188Z,22.37
2019-01-12T09:00:30.848Z,17.40
2019-01-12T09:02:59.895Z,20.30
2019-01-12T09:05:29.023Z,19.85
2019-01-12T09:07:58.634Z,18.65
2019-01-12T09:10:27.548Z,14.47
2019-01-12T09:12:56.012Z,15.18
2019-01-12T09:15:24.595Z,13.38
2019-01-12T09:17:53.090Z,15.13
2019-01-12T09:20:21.985Z,13.62
2019-01-12T09:22:50.925Z,14.00
2019-01-12T09:25:19.324Z,13.60
2019-01-12T09:27:47.888Z,13.65
2019-01-12T09:30:19.055Z,12.63
2019-01-12T09:32:48.160Z,15.60
2019-01-12T09:35:17.650Z,9.20
2019-01-12T09:37:46.008Z,9.08
2019-01-12T09:40:17.207Z,8.83
2019-01-12T09:42:46.137Z,13.05
2019-01-12T09:45:15.469Z,6.85
2019-01-12T09:47:43.951Z,10.45
2019-01-12T09:50:15.710Z,9.35
2019-01-12T09:52:46.507Z,8.08
2019-01-12T09:55:14.897Z,7.67
2019-01-12T09:57:43.473Z,7.75
2019-01-12T10:00:25.638Z,8.38
2019-01-12T10:02:54.712Z,5.95
2019-01-12T10:05:23.385Z,6.40
2019-01-12T10:07:52.131Z,9.40
2019-01-12T10:10:21.054Z,8.08
2019-01-12T10:12:49.604Z,8.90
2019-01-12T10:15:18.316Z,10.03
2019-01-12T10:17:46.826Z,10.15
2019-01-12T10:20:17.162Z,8.93
2019-01-12T10:22:45.635Z,8.18
2019-01-12T10:25:15.227Z,6.40
2019-01-12T10:27:43.618Z,7.87
2019-01-12T10:30:23.543Z,6.92
2019-01-12T10:32:52.084Z,11.10
2019-01-12T10:35:20.460Z,11.80
2019-01-12T10:37:49.226Z,11.33
2019-01-12T10:40:18.284Z,10.20
2019-01-12T10:42:47.055Z,8.63
2019-01-12T10:45:17.429Z,8.23
2019-01-12T10:47:47.148Z,8.10
2019-01-12T10:50:19.776Z,9.03
2019-01-12T10:52:48.293Z,8.47
2019-01-12T10:55:17.061Z,6.53
2019-01-12T10:57:47.375Z,7.73
2019-01-12T11:00:30.252Z,11.07
2019-01-12T11:02:59.536Z,10.60
2019-01-12T11:05:27.966Z,6.47
2019-01-12T11:07:57.952Z,5.47
2019-01-12T11:10:26.415Z,7.00
2019-01-12T11:12:54.970Z,7.20
2019-01-12T11:15:23.556Z,10.20
2019-01-12T11:17:52.035Z,10.47
2019-01-12T11:20:20.422Z,7.97
2019-01-12T11:22:48.819Z,7.27
2019-01-12T11:25:17.367Z,7.13
2019-01-12T11:27:46.044Z,5.47
2019-01-12T11:30:16.590Z,5.87
2019-01-12T11:32:45.192Z,6.93
2019-01-12T11:35:14.348Z,4.63
2019-01-12T11:37:43.435Z,3.73
2019-01-12T11:40:18.297Z,5.60
2019-01-12T11:42:48.634Z,4.23
2019-01-12T11:45:17.304Z,5.60
2019-01-12T11:47:45.829Z,7.50
2019-01-12T11:50:14.935Z,5.90
2019-01-12T11:52:44.254Z,5.20
2019-01-12T11:55:14.317Z,9.00
2019-01-12T11:57:44.676Z,10.50
2019-01-12T12:00:29.430Z,6.43
2019-01-12T12:02:59.457Z,6.43
2019-01-12T12:05:27.936Z,9.20
2019-01-12T12:07:57.711Z,8.90
2019-01-12T12:10:26.188Z,7.80
2019-01-12T12:12:54.721Z,7.87
2019-01-12T12:15:23.539Z,7.67
2019-01-12T12:17:52.067Z,9.90
2019-01-12T12:20:23.784Z,6.20
2019-01-12T12:22:55.592Z,6.47
2019-01-12T12:25:24.294Z,8.73
2019-01-12T12:27:54.493Z,13.33
2019-01-12T12:30:26.565Z,7.47
2019-01-12T12:32:55.284Z,10.63
2019-01-12T12:35:24.088Z,7.87
2019-01-12T12:37:52.910Z,9.97
2019-01-12T12:40:21.969Z,10.90
2019-01-12T12:42:50.536Z,7.47
2019-01-12T12:45:26.128Z,9.60
2019-01-12T12:47:54.701Z,8.90
2019-01-12T12:50:23.288Z,10.10
2019-01-12T12:52:51.834Z,12.70
2019-01-12T12:55:20.319Z,11.43
2019-01-12T12:57:48.878Z,11.90
2019-01-12T13:00:26.713Z,9.13
2019-01-12T13:02:56.260Z,10.20
2019-01-12T13:05:24.954Z,11.00
2019-01-12T13:07:53.465Z,16.03
2019-01-12T13:10:30.187Z,11.90
2019-01-12T13:12:58.850Z,12.63
2019-01-12T13:15:27.224Z,10.83
2019-01-12T13:17:56.531Z,8.40
2019-01-12T13:20:24.927Z,10.03
2019-01-12T13:22:53.801Z,8.50
2019-01-12T13:25:22.483Z,10.00
2019-01-12T13:27:50.836Z,10.90
2019-01-12T13:30:22.981Z,11.80
2019-01-12T13:32:53.438Z,12.00
2019-01-12T13:35:22.023Z,13.63
2019-01-12T13:37:50.778Z,9.90
2019-01-12T13:40:23.109Z,11.23
2019-01-12T13:42:51.681Z,11.80
2019-01-12T13:45:20.330Z,11.30
2019-01-12T13:47:48.772Z,9.70
2019-01-12T13:50:20.321Z,8.77
2019-01-12T13:52:49.130Z,9.60
2019-01-12T13:55:17.507Z,12.00
2019-01-12T13:57:48.223Z,11.73
2019-01-12T14:00:34.154Z,10.07
2019-01-12T14:03:04.670Z,11.20
2019-01-12T14:05:33.119Z,10.57
2019-01-12T14:08:01.612Z,11.93
2019-01-12T14:10:30.200Z,10.03
2019-01-12T14:12:58.633Z,9.13
2019-01-12T14:15:27.315Z,11.60
2019-01-12T14:17:55.796Z,11.93
2019-01-12T14:20:36.602Z,10.27
2019-01-12T14:23:05.518Z,11.60
2019-01-12T14:25:34.398Z,10.70
2019-01-12T14:28:02.781Z,11.40
2019-01-12T14:30:31.470Z,14.63
2019-01-12T14:33:00.275Z,11.17
2019-01-12T14:35:28.760Z,12.90
2019-01-12T14:37:57.810Z,11.80
2019-01-12T14:40:26.814Z,12.57
2019-01-12T14:42:56.416Z,12.30
2019-01-12T14:45:30.868Z,11.43
2019-01-12T14:47:59.480Z,9.47
2019-01-12T14:50:28.151Z,17.00
2019-01-12T14:52:56.662Z,13.80
2019-01-12T14:55:25.145Z,16.07
2019-01-12T14:58:01.559Z,19.20
2019-01-12T15:00:31.485Z,16.90
2019-01-12T15:03:00.179Z,15.00
2019-01-12T15:05:31.188Z,13.60
2019-01-12T15:08:00.632Z,15.33
2019-01-12T15:10:31.029Z,12.10
2019-01-12T15:12:59.496Z,13.23
2019-01-12T15:15:28.232Z,13.13
2019-01-12T15:17:57.129Z,13.13
2019-01-12T15:20:27.917Z,16.73
2019-01-12T15:22:56.308Z,15.30
2019-01-12T15:25:25.536Z,11.00
2019-01-12T15:27:54.174Z,14.47
2019-01-12T15:30:25.641Z,16.87
2019-01-12T15:32:54.364Z,17.37
2019-01-12T15:35:25.356Z,15.60
2019-01-12T15:37:53.855Z,16.53
2019-01-12T15:40:22.449Z,12.07
2019-01-12T15:42:51.031Z,12.97
2019-01-12T15:45:22.132Z,13.00
2019-01-12T15:47:51.656Z,10.83
2019-01-12T15:50:22.908Z,16.10
2019-01-12T15:52:51.606Z,12.68
2019-01-12T15:55:20.412Z,12.63
2019-01-12T15:57:48.792Z,15.13
2019-01-12T16:00:32.488Z,21.12
2019-01-12T16:03:01.990Z,15.78
2019-01-12T16:05:31.139Z,10.28
2019-01-12T16:07:59.841Z,16.70
2019-01-12T16:10:30.752Z,13.55
2019-01-12T16:13:00.863Z,13.20
2019-01-12T16:15:31.689Z,15.38
2019-01-12T16:18:00.254Z,15.10
2019-01-12T16:20:39.951Z,19.70
2019-01-12T16:23:12.939Z,23.87
2019-01-12T16:25:43.862Z,31.48
2019-01-12T16:28:12.887Z,24.37
2019-01-12T16:30:43.375Z,24.30
2019-01-12T16:33:13.855Z,20.55
2019-01-12T16:35:42.434Z,21.87
2019-01-12T16:38:11.333Z,20.95
2019-01-12T16:40:39.748Z,22.32
2019-01-12T16:43:08.780Z,21.70
2019-01-12T16:45:37.178Z,24.55
2019-01-12T16:48:05.587Z,24.65
2019-01-12T16:50:34.094Z,23.90
2019-01-12T16:53:02.914Z,22.17
2019-01-12T16:55:31.529Z,31.23
2019-01-12T16:58:00.042Z,26.90
2019-01-12T17:00:30.714Z,26.40
2019-01-12T17:03:00.807Z,32.75
2019-01-12T17:05:29.425Z,32.08
2019-01-12T17:07:58.129Z,36.77
2019-01-12T17:10:27.464Z,31.65
2019-01-12T17:12:56.001Z,35.92
2019-01-12T17:15:24.579Z,28.73
2019-01-12T17:17:54.248Z,25.80
2019-01-12T17:20:25.644Z,24.05
2019-01-12T17:23:00.556Z,23.85
2019-01-12T17:25:29.401Z,24.77
2019-01-12T17:27:58.111Z,28.95
2019-01-12T17:30:33.251Z,26.62
2019-01-12T17:33:02.124Z,27.02
2019-01-12T17:35:30.699Z,23.55
2019-01-12T17:37:59.558Z,22.20
2019-01-12T17:40:29.057Z,21.27
2019-01-12T17:42:59.338Z,22.98
2019-01-12T17:45:28.060Z,23.10
2019-01-12T17:47:57.442Z,30.60
2019-01-12T17:50:27.543Z,29.72
2019-01-12T17:52:56.260Z,37.73
2019-01-12T17:55:26.304Z,41.35
2019-01-12T17:57:56.519Z,35.70
2019-01-12T18:00:35.106Z,37.93
2019-01-12T18:03:03.698Z,29.82
2019-01-12T18:05:32.081Z,33.65
2019-01-12T18:08:00.563Z,29.90
2019-01-12T18:10:30.465Z,33.35
2019-01-12T18:12:59.352Z,27.93
2019-01-12T18:15:27.748Z,28.52
2019-01-12T18:17:56.127Z,38.53
2019-01-12T18:20:24.499Z,33.08
2019-01-12T18:22:52.914Z,35.45
2019-01-12T18:25:21.287Z,35.35
2019-01-12T18:27:49.691Z,40.12
2019-01-12T18:30:19.467Z,36.08
2019-01-12T18:32:49.617Z,39.33
2019-01-12T18:35:18.108Z,31.85
2019-01-12T18:37:47.701Z,38.78
2019-01-12T18:40:17.293Z,37.53
2019-01-12T18:42:45.978Z,30.77
2019-01-12T18:45:17.007Z,30.27
2019-01-12T18:47:45.498Z,38.98
2019-01-12T18:50:17.635Z,32.98
2019-01-12T18:52:46.306Z,33.63
2019-01-12T18:55:14.821Z,35.65
2019-01-12T18:57:43.183Z,26.80
2019-01-12T19:00:19.421Z,28.75
2019-01-12T19:02:49.788Z,23.32
2019-01-12T19:05:20.100Z,21.23
2019-01-12T19:07:48.578Z,25.68
2019-01-12T19:10:17.065Z,26.57
2019-01-12T19:12:45.570Z,31.17
2019-01-12T19:15:24.087Z,26.93
2019-01-12T19:17:52.789Z,25.10
2019-01-12T19:20:21.477Z,24.60
2019-01-12T19:22:50.161Z,26.02
2019-01-12T19:25:18.976Z,25.57
2019-01-12T19:27:47.474Z,28.20
2019-01-12T19:30:19.677Z,33.40
2019-01-12T19:32:48.169Z,27.85
2019-01-12T19:35:16.649Z,30.32
2019-01-12T19:37:45.301Z,41.37
2019-01-12T19:40:22.328Z,32.63
2019-01-12T19:42:50.869Z,30.90
2019-01-12T19:45:21.060Z,33.67
2019-01-12T19:47:49.449Z,33.73
2019-01-12T19:50:21.357Z,30.62
2019-01-12T19:52:51.121Z,39.13
2019-01-12T19:55:20.970Z,36.95
2019-01-12T19:57:49.466Z,32.05
2019-01-12T20:00:29.440Z,33.50
2019-01-12T20:02:58.011Z,34.05
2019-01-12T20:05:26.479Z,32.70
2019-01-12T20:07:54.863Z,30.72
2019-01-12T20:10:23.628Z,35.23
2019-01-12T20:12:55.893Z,30.90
2019-01-12T20:15:25.153Z,27.27
2019-01-12T20:17:55.260Z,26.30
2019-01-12T20:20:23.629Z,27.87
2019-01-12T20:22:53.296Z,33.58
2019-01-12T20:25:25.652Z,28.45
2019-01-12T20:27:54.024Z,30.40
2019-01-12T20:30:55.812Z,28.47
2019-01-12T20:34:18.133Z,30.80
2019-01-12T20:38:09.601Z,32.67
2019-01-12T20:42:09.447Z,37.20
2019-01-12T20:45:37.387Z,31.62
2019-01-12T20:48:53.821Z,31.17
2019-01-12T20:52:34.875Z,28.67
2019-01-12T20:55:49.849Z,26.17
2019-01-12T20:59:28.263Z,27.48
2019-01-12T21:03:29.266Z,27.20
2019-01-12T21:06:27.190Z,28.77
2019-01-12T21:09:49.299Z,23.25
2019-01-12T21:13:19.487Z,24.23
2019-01-12T21:15:56.556Z,28.35
2019-01-12T21:18:25.228Z,28.12
2019-01-12T21:20:53.698Z,24.92
2019-01-12T21:23:22.196Z,21.73
2019-01-12T21:25:50.623Z,22.62
2019-01-12T21:28:18.990Z,24.25
2019-01-12T21:30:47.347Z,25.45
2019-01-12T21:33:16.044Z,26.05
2019-01-12T21:35:44.516Z,23.15
2019-01-12T21:38:13.003Z,26.10
2019-01-12T21:40:41.369Z,25.60
2019-01-12T21:43:09.953Z,20.77
2019-01-12T21:45:39.944Z,20.23
2019-01-12T21:48:08.346Z,21.85
2019-01-12T21:50:36.707Z,20.12
2019-01-12T21:53:06.481Z,21.85
2019-01-12T21:55:34.878Z,26.05
2019-01-12T21:58:05.523Z,25.10
2019-01-12T22:00:34.001Z,31.25
2019-01-12T22:03:02.611Z,31.60
2019-01-12T22:05:30.974Z,37.15
2019-01-12T22:07:59.344Z,36.48
2019-01-12T22:10:28.027Z,31.55
2019-01-12T22:12:56.530Z,30.80
2019-01-12T22:15:25.303Z,37.65
2019-01-12T22:17:53.696Z,36.50
2019-01-12T22:20:22.364Z,26.48
2019-01-12T22:22:50.767Z,26.23
2019-01-12T22:25:19.278Z,33.63
2019-01-12T22:27:47.733Z,35.35
2019-01-12T22:30:17.195Z,33.20
2019-01-12T22:32:46.090Z,39.25
2019-01-12T22:35:14.556Z,43.02
2019-01-12T22:37:42.945Z,30.25
2019-01-12T22:40:18.586Z,32.28
2019-01-12T22:42:47.315Z,27.27
2019-01-12T22:45:15.793Z,36.75
2019-01-12T22:47:44.378Z,31.42
2019-01-12T22:50:13.924Z,31.65
2019-01-12T22:52:42.673Z,30.10
2019-01-12T22:55:11.783Z,28.38
2019-01-12T22:57:40.260Z,34.88
2019-01-12T23:00:52.870Z,32.40
2019-01-12T23:03:21.456Z,33.73
2019-01-12T23:05:50.196Z,34.90
2019-01-12T23:08:18.878Z,32.13
2019-01-12T23:10:49.058Z,33.15
2019-01-12T23:13:17.523Z,35.17
2019-01-12T23:15:46.088Z,34.30
2019-01-12T23:18:15.781Z,31.57
2019-01-12T23:20:44.240Z,38.15
2019-01-12T23:23:12.682Z,39.73
2019-01-12T23:25:41.038Z,35.00
2019-01-12T23:28:09.529Z,43.85
2019-01-12T23:30:38.091Z,35.95
2019-01-12T23:33:07.518Z,34.78
2019-01-12T23:35:36.783Z,40.40
2019-01-12T23:38:05.369Z,37.38
2019-01-12T23:40:35.552Z,39.55
2019-01-12T23:43:04.214Z,31.20
2019-01-12T23:45:32.660Z,35.08
2019-01-12T23:48:02.046Z,34.88
2019-01-12T23:50:32.309Z,33.13
2019-01-12T23:53:00.695Z,32.23
2019-01-12T23:55:30.862Z,33.10
2019-01-12T23:57:59.233Z,34.98
